createdAt,value
2019-05-26T00:02:20.080Z,12.50
2019-05-26T00:04:50.735Z,12.40
2019-05-26T00:07:30.665Z,12.30
2019-05-26T00:09:55.321Z,12.20
2019-05-26T00:12:25.708Z,12.00
2019-05-26T00:14:55.767Z,11.90
2019-05-26T00:17:25.881Z,11.80
2019-05-26T00:19:59.726Z,11.90
2019-05-26T00:22:28.435Z,11.90
2019-05-26T00:24:59.780Z,12.00
2019-05-26T00:27:29.814Z,12.10
2019-05-26T00:30:02.507Z,12.10
2019-05-26T00:32:30.357Z,12.00
2019-05-26T00:35:01.025Z,12.00
2019-05-26T00:37:45.629Z,12.10
2019-05-26T00:40:17.724Z,12.10
2019-05-26T00:42:46.823Z,12.20
2019-05-26T00:45:17.753Z,12.20
2019-05-26T00:47:47.986Z,12.10
2019-05-26T00:50:18.798Z,12.10
2019-05-26T00:52:51.539Z,12.10
2019-05-26T00:55:22.788Z,12.00
2019-05-26T00:57:54.179Z,11.90
2019-05-26T01:00:41.896Z,11.90
2019-05-26T01:03:11.964Z,11.90
2019-05-26T01:05:42.183Z,11.80
2019-05-26T01:08:15.201Z,11.80
2019-05-26T01:10:51.115Z,11.90
2019-05-26T01:13:20.692Z,11.80
2019-05-26T01:15:50.938Z,11.80
2019-05-26T01:18:22.486Z,11.70
2019-05-26T01:20:53.921Z,11.60
2019-05-26T01:23:22.904Z,11.60
2019-05-26T01:25:53.279Z,11.60
2019-05-26T01:28:25.221Z,11.60
2019-05-26T01:33:43.414Z,11.50
2019-05-26T01:36:15.935Z,11.50
2019-05-26T01:38:46.321Z,11.50
2019-05-26T01:41:20.249Z,11.50
2019-05-26T01:43:55.354Z,11.50
2019-05-26T01:46:29.227Z,11.50
2019-05-26T01:49:02.475Z,11.50
2019-05-26T01:51:33.634Z,11.50
2019-05-26T01:54:03.326Z,11.40
2019-05-26T01:56:47.184Z,11.30
2019-05-26T01:59:06.530Z,11.20
2019-05-26T02:01:39.420Z,11.20
2019-05-26T02:04:15.373Z,11.20
2019-05-26T02:06:51.495Z,11.30
2019-05-26T02:09:22.821Z,11.30
2019-05-26T02:11:58.558Z,11.30
2019-05-26T02:14:32.513Z,11.20
2019-05-26T02:17:07.888Z,11.10
2019-05-26T02:19:43.269Z,11.10
2019-05-26T02:22:14.940Z,11.10
2019-05-26T02:24:44.650Z,11.10
2019-05-26T02:27:16.889Z,11.00
2019-05-26T02:29:51.685Z,11.00
2019-05-26T02:32:25.239Z,11.00
2019-05-26T02:34:59.156Z,11.00
2019-05-26T02:37:31.347Z,11.00
2019-05-26T02:40:06.026Z,11.10
2019-05-26T02:42:36.878Z,11.10
2019-05-26T02:45:19.112Z,11.00
2019-05-26T02:47:52.981Z,11.00
2019-05-26T02:50:25.924Z,11.00
2019-05-26T02:52:58.249Z,11.00
2019-05-26T02:55:29.942Z,10.90
2019-05-26T02:58:01.155Z,10.90
2019-05-26T03:00:45.177Z,11.00
2019-05-26T03:03:19.060Z,11.00
2019-05-26T03:05:50.047Z,10.90
2019-05-26T03:08:18.886Z,10.90
2019-05-26T03:10:53.103Z,10.90
2019-05-26T03:13:22.545Z,11.00
2019-05-26T03:16:02.267Z,11.00
2019-05-26T03:18:33.645Z,11.10
2019-05-26T03:21:04.553Z,11.20
2019-05-26T03:23:36.646Z,11.40
2019-05-26T03:26:15.411Z,11.50
2019-05-26T03:28:47.791Z,11.60
2019-05-26T03:31:22.121Z,11.60
2019-05-26T03:33:50.971Z,11.60
2019-05-26T03:36:20.046Z,11.60
2019-05-26T03:38:56.988Z,11.60
2019-05-26T03:41:25.967Z,11.70
2019-05-26T03:43:54.982Z,11.60
2019-05-26T03:46:35.000Z,11.70
2019-05-26T03:49:06.163Z,11.70
2019-05-26T03:51:42.505Z,11.90
2019-05-26T03:54:13.661Z,11.90
2019-05-26T03:56:45.849Z,12.10
2019-05-26T03:59:17.723Z,12.20
2019-05-26T04:01:49.800Z,12.30
2019-05-26T04:04:38.492Z,12.40
2019-05-26T04:07:12.421Z,12.60
2019-05-26T04:10:02.630Z,12.60
2019-05-26T04:12:20.671Z,12.70
2019-05-26T04:18:02.105Z,12.90
2019-05-26T04:20:36.773Z,13.00
2019-05-26T04:23:08.861Z,13.10
2019-05-26T04:25:45.550Z,13.20
2019-05-26T04:28:19.574Z,13.30
2019-05-26T04:30:52.914Z,13.40
2019-05-26T04:33:22.393Z,13.40
2019-05-26T04:35:57.373Z,13.50
2019-05-26T04:38:29.835Z,13.50
2019-05-26T04:41:10.929Z,13.60
2019-05-26T04:43:47.835Z,13.90
2019-05-26T04:46:29.725Z,14.10
2019-05-26T04:49:04.209Z,14.20
2019-05-26T04:51:44.734Z,14.30
2019-05-26T04:54:15.608Z,14.40
2019-05-26T04:56:57.188Z,14.50
2019-05-26T04:59:28.821Z,14.70
2019-05-26T05:02:00.785Z,15.00
2019-05-26T05:04:31.470Z,15.10
2019-05-26T05:07:05.701Z,15.10
2019-05-26T05:09:36.875Z,15.10
2019-05-26T05:12:12.418Z,15.20
2019-05-26T05:14:49.053Z,15.10
2019-05-26T05:17:22.336Z,15.10
2019-05-26T05:19:55.212Z,15.10
2019-05-26T05:22:26.740Z,15.20
2019-05-26T05:25:00.127Z,15.10
2019-05-26T05:27:39.262Z,15.10
2019-05-26T05:30:16.508Z,15.00
2019-05-26T05:32:50.357Z,15.00
2019-05-26T05:35:20.434Z,15.20
2019-05-26T05:37:52.284Z,15.30
2019-05-26T05:40:21.999Z,15.40
2019-05-26T05:42:58.141Z,15.40
2019-05-26T05:45:26.443Z,15.50
2019-05-26T05:47:55.880Z,15.60
2019-05-26T05:50:28.605Z,15.90
2019-05-26T05:53:00.518Z,16.30
2019-05-26T05:55:30.610Z,16.80
2019-05-26T05:58:01.845Z,16.80
2019-05-26T06:00:31.677Z,16.70
2019-05-26T06:03:02.069Z,16.70
2019-05-26T06:05:31.533Z,16.80
2019-05-26T06:08:10.365Z,17.20
2019-05-26T06:10:44.721Z,17.60
2019-05-26T06:13:14.001Z,17.30
2019-05-26T06:15:47.276Z,17.20
2019-05-26T06:18:21.140Z,17.10
2019-05-26T06:20:50.997Z,17.20
2019-05-26T06:23:22.571Z,17.20
2019-05-26T06:25:52.865Z,17.30
2019-05-26T06:28:24.174Z,17.60
2019-05-26T06:30:52.933Z,18.10
2019-05-26T06:33:25.079Z,18.40
2019-05-26T06:36:09.510Z,18.60
2019-05-26T06:38:26.948Z,18.40
2019-05-26T06:40:55.609Z,18.10
2019-05-26T06:43:27.273Z,17.90
2019-05-26T06:45:58.539Z,17.80
2019-05-26T06:48:27.562Z,17.60
2019-05-26T06:50:57.305Z,17.50
2019-05-26T06:53:31.312Z,17.50
2019-05-26T06:56:04.698Z,17.50
2019-05-26T06:58:33.426Z,17.90
2019-05-26T07:01:12.970Z,18.20
2019-05-26T07:06:35.677Z,18.10
2019-05-26T07:09:07.517Z,17.90
2019-05-26T07:11:54.300Z,17.70
2019-05-26T07:14:15.861Z,17.60
2019-05-26T07:16:44.688Z,17.60
2019-05-26T07:19:14.628Z,17.90
2019-05-26T07:21:46.213Z,18.90
2019-05-26T07:24:16.409Z,19.80
2019-05-26T07:26:47.066Z,20.70
2019-05-26T07:29:15.839Z,21.00
2019-05-26T07:31:48.182Z,20.30
2019-05-26T07:34:18.427Z,19.50
2019-05-26T07:36:47.933Z,19.30
2019-05-26T07:39:18.918Z,19.30
2019-05-26T07:41:48.684Z,18.90
2019-05-26T07:44:18.743Z,19.50
2019-05-26T07:46:51.448Z,19.90
2019-05-26T07:49:20.162Z,19.80
2019-05-26T07:51:55.088Z,19.20
2019-05-26T07:54:27.257Z,18.90
2019-05-26T07:56:56.073Z,18.80
2019-05-26T07:59:30.907Z,18.60
2019-05-26T08:02:00.804Z,18.50
2019-05-26T08:04:29.848Z,18.70
2019-05-26T08:07:01.696Z,18.60
2019-05-26T08:09:34.315Z,18.60
2019-05-26T08:12:07.160Z,18.40
2019-05-26T08:14:38.136Z,18.30
2019-05-26T08:17:12.980Z,18.20
2019-05-26T08:19:47.430Z,18.30
2019-05-26T08:22:26.150Z,18.40
2019-05-26T08:24:57.732Z,18.20
2019-05-26T08:27:30.186Z,17.90
2019-05-26T08:30:02.278Z,17.90
2019-05-26T08:32:36.440Z,18.00
2019-05-26T08:35:16.643Z,18.60
2019-05-26T08:37:46.752Z,19.20
2019-05-26T08:40:18.306Z,19.30
2019-05-26T08:42:50.437Z,19.90
2019-05-26T08:45:23.612Z,20.40
2019-05-26T08:47:52.589Z,20.10
2019-05-26T08:50:24.358Z,19.70
2019-05-26T08:52:53.213Z,19.40
2019-05-26T08:55:25.316Z,19.50
2019-05-26T08:58:00.107Z,19.50
2019-05-26T09:00:33.972Z,19.90
2019-05-26T09:03:08.146Z,20.70
2019-05-26T09:05:38.676Z,20.70
2019-05-26T09:08:08.309Z,21.00
2019-05-26T09:10:44.961Z,20.80
2019-05-26T09:13:20.047Z,20.20
2019-05-26T09:15:46.338Z,20.30
2019-05-26T09:18:18.099Z,20.60
2019-05-26T09:20:48.004Z,21.20
2019-05-26T09:23:21.498Z,21.00
2019-05-26T09:25:52.851Z,21.00
2019-05-26T09:28:22.647Z,20.50
2019-05-26T09:30:55.258Z,20.00
2019-05-26T09:33:26.425Z,19.70
2019-05-26T09:35:57.531Z,19.90
2019-05-26T09:38:28.600Z,19.90
2019-05-26T09:40:57.138Z,20.50
2019-05-26T09:43:27.640Z,20.80
2019-05-26T09:45:57.205Z,21.20
2019-05-26T09:48:27.608Z,21.30
2019-05-26T09:50:56.172Z,21.20
2019-05-26T09:53:30.919Z,21.00
2019-05-26T09:55:59.720Z,21.10
2019-05-26T09:58:28.505Z,20.90
2019-05-26T10:00:58.944Z,20.50
2019-05-26T10:03:27.934Z,20.60
2019-05-26T10:05:56.724Z,20.90
2019-05-26T10:08:35.187Z,20.80
2019-05-26T10:11:12.660Z,20.90
2019-05-26T10:13:41.216Z,21.10
2019-05-26T10:16:10.509Z,21.10
2019-05-26T10:18:42.519Z,21.10
2019-05-26T10:21:12.620Z,21.00
2019-05-26T10:23:41.374Z,21.20
2019-05-26T10:26:10.983Z,21.50
2019-05-26T10:28:40.911Z,21.80
2019-05-26T10:31:09.975Z,21.50
2019-05-26T10:33:42.704Z,21.20
2019-05-26T10:36:11.973Z,20.90
2019-05-26T10:38:41.373Z,20.50
2019-05-26T10:41:10.799Z,20.20
2019-05-26T10:43:47.366Z,19.90
2019-05-26T10:46:10.939Z,20.10
2019-05-26T10:48:44.181Z,20.50
2019-05-26T10:51:14.343Z,20.50
2019-05-26T10:53:43.083Z,20.70
2019-05-26T10:56:12.001Z,20.90
2019-05-26T10:58:43.015Z,20.90
2019-05-26T11:01:15.195Z,21.10
2019-05-26T11:03:46.554Z,21.30
2019-05-26T11:06:15.394Z,21.30
2019-05-26T11:08:44.414Z,21.30
2019-05-26T11:11:13.071Z,21.30
2019-05-26T11:13:43.320Z,21.70
2019-05-26T11:16:15.192Z,21.70
2019-05-26T11:18:44.025Z,21.60
2019-05-26T11:21:13.401Z,21.40
2019-05-26T11:23:43.650Z,21.50
2019-05-26T11:26:12.475Z,21.50
2019-05-26T11:28:46.038Z,21.70
2019-05-26T11:31:14.776Z,22.10
2019-05-26T11:33:46.772Z,22.00
2019-05-26T11:36:16.953Z,22.10
2019-05-26T11:38:47.044Z,22.00
2019-05-26T11:41:15.683Z,22.20
2019-05-26T11:43:46.836Z,21.90
2019-05-26T11:46:16.975Z,22.10
2019-05-26T11:48:48.655Z,22.20
2019-05-26T11:51:19.527Z,22.30
2019-05-26T11:53:48.706Z,22.10
2019-05-26T11:56:17.464Z,21.90
2019-05-26T11:58:46.630Z,21.70
2019-05-26T12:01:15.342Z,21.90
2019-05-26T12:03:45.315Z,22.10
2019-05-26T12:06:14.085Z,22.10
2019-05-26T12:08:44.143Z,22.20
2019-05-26T12:11:15.185Z,22.30
2019-05-26T12:13:45.935Z,22.30
2019-05-26T12:16:16.984Z,22.50
2019-05-26T12:18:48.530Z,22.80
2019-05-26T12:21:18.754Z,22.80
2019-05-26T12:23:54.923Z,22.40
2019-05-26T12:26:23.859Z,22.50
2019-05-26T12:28:52.989Z,22.60
2019-05-26T12:31:22.269Z,22.50
2019-05-26T12:34:03.057Z,22.50
2019-05-26T12:36:42.102Z,22.70
2019-05-26T12:39:15.612Z,22.30
2019-05-26T12:41:46.463Z,22.40
2019-05-26T12:47:06.267Z,22.80
2019-05-26T12:49:40.344Z,22.90
2019-05-26T12:52:17.434Z,22.80
2019-05-26T12:54:48.583Z,22.90
2019-05-26T12:57:20.358Z,23.00
2019-05-26T12:59:54.535Z,23.00
2019-05-26T13:02:21.932Z,22.60
2019-05-26T13:04:56.234Z,22.40
2019-05-26T13:07:26.907Z,22.50
2019-05-26T13:09:58.850Z,22.60
2019-05-26T13:12:33.080Z,22.40
2019-05-26T13:15:06.188Z,22.40
2019-05-26T13:17:36.807Z,22.60
2019-05-26T13:20:11.243Z,22.60
2019-05-26T13:22:41.321Z,22.60
2019-05-26T13:25:14.168Z,22.80
2019-05-26T13:27:48.371Z,22.70
2019-05-26T13:30:22.649Z,22.60
2019-05-26T13:32:52.488Z,22.60
2019-05-26T13:35:22.865Z,22.40
2019-05-26T13:37:53.657Z,22.30
2019-05-26T13:40:24.397Z,22.10
2019-05-26T13:42:55.666Z,21.90
2019-05-26T13:45:26.931Z,22.00
2019-05-26T13:47:59.812Z,22.10
2019-05-26T13:50:32.519Z,22.20
2019-05-26T13:53:09.772Z,22.30
2019-05-26T13:55:42.156Z,22.50
2019-05-26T13:58:12.958Z,22.40
2019-05-26T14:00:49.893Z,22.30
2019-05-26T14:03:19.503Z,22.30
2019-05-26T14:05:51.869Z,22.20
2019-05-26T14:08:23.312Z,22.10
2019-05-26T14:10:56.096Z,22.10
2019-05-26T14:13:29.631Z,22.10
2019-05-26T14:16:03.325Z,22.10
2019-05-26T14:18:46.449Z,22.00
2019-05-26T14:21:20.162Z,22.00
2019-05-26T14:23:50.885Z,21.90
2019-05-26T14:26:21.006Z,21.80
2019-05-26T14:28:52.961Z,21.90
2019-05-26T14:31:24.289Z,21.90
2019-05-26T14:33:54.701Z,22.10
2019-05-26T14:36:26.329Z,22.20
2019-05-26T14:39:00.959Z,22.00
2019-05-26T14:41:30.190Z,21.90
2019-05-26T14:44:02.321Z,21.70
2019-05-26T14:46:34.793Z,21.60
2019-05-26T14:49:06.984Z,21.60
2019-05-26T14:51:35.767Z,21.70
2019-05-26T14:54:08.966Z,21.80
2019-05-26T14:56:38.105Z,21.90
2019-05-26T14:59:12.934Z,21.80
2019-05-26T15:01:44.796Z,21.80
2019-05-26T15:04:19.392Z,21.80
2019-05-26T15:06:49.216Z,21.90
2019-05-26T15:09:25.240Z,21.90
2019-05-26T15:11:51.320Z,21.90
2019-05-26T15:14:22.668Z,21.80
2019-05-26T15:17:01.899Z,21.60
2019-05-26T15:19:37.088Z,21.70
2019-05-26T15:22:08.487Z,21.80
2019-05-26T15:24:42.711Z,21.70
2019-05-26T15:27:13.855Z,21.50
2019-05-26T15:29:46.023Z,21.40
2019-05-26T15:32:19.288Z,21.40
2019-05-26T15:34:53.407Z,21.20
2019-05-26T15:37:24.995Z,21.20
2019-05-26T15:39:59.696Z,21.20
2019-05-26T15:42:37.225Z,21.20
2019-05-26T15:45:17.475Z,21.20
2019-05-26T15:47:52.592Z,21.20
2019-05-26T15:50:22.459Z,21.20
2019-05-26T15:52:54.541Z,21.20
2019-05-26T15:55:25.335Z,21.20
2019-05-26T15:57:54.053Z,21.30
2019-05-26T16:00:29.634Z,21.40
2019-05-26T16:03:00.281Z,21.40
2019-05-26T16:05:33.247Z,21.40
2019-05-26T16:08:03.674Z,21.40
2019-05-26T16:10:33.705Z,21.40
2019-05-26T16:13:02.518Z,21.40
2019-05-26T16:15:37.076Z,21.30
2019-05-26T16:18:10.935Z,21.20
2019-05-26T16:20:42.411Z,21.10
2019-05-26T16:23:13.888Z,20.90
2019-05-26T16:25:48.899Z,20.90
2019-05-26T16:28:18.606Z,20.90
2019-05-26T16:30:51.045Z,20.80
2019-05-26T16:33:21.010Z,20.80
2019-05-26T16:35:56.815Z,20.70
2019-05-26T16:38:21.721Z,20.70
2019-05-26T16:40:55.750Z,20.60
2019-05-26T16:43:25.200Z,20.60
2019-05-26T16:45:56.504Z,20.60
2019-05-26T16:48:25.313Z,20.60
2019-05-26T16:50:55.902Z,20.60
2019-05-26T16:53:25.073Z,20.60
2019-05-26T16:55:56.041Z,20.60
2019-05-26T16:58:27.349Z,20.60
2019-05-26T17:00:59.955Z,20.60
2019-05-26T17:03:30.444Z,20.50
2019-05-26T17:06:07.942Z,20.60
2019-05-26T17:08:37.604Z,20.60
2019-05-26T17:11:07.172Z,20.60
2019-05-26T17:13:40.315Z,20.50
2019-05-26T17:16:11.652Z,20.50
2019-05-26T17:18:46.353Z,20.50
2019-05-26T17:21:17.930Z,20.50
2019-05-26T17:23:47.323Z,20.40
2019-05-26T17:26:16.056Z,20.40
2019-05-26T17:28:47.690Z,20.40
2019-05-26T17:31:18.976Z,20.40
2019-05-26T17:33:59.494Z,20.30
2019-05-26T17:36:30.254Z,20.30
2019-05-26T17:39:04.659Z,20.30
2019-05-26T17:41:37.450Z,20.20
2019-05-26T17:44:06.700Z,20.20
2019-05-26T17:46:44.590Z,20.20
2019-05-26T17:49:13.762Z,20.10
2019-05-26T17:51:45.381Z,20.00
2019-05-26T17:54:21.491Z,20.00
2019-05-26T17:56:51.049Z,19.90
2019-05-26T17:59:22.887Z,19.90
2019-05-26T18:01:54.483Z,19.90
2019-05-26T18:04:35.670Z,19.90
2019-05-26T18:07:06.889Z,19.80
2019-05-26T18:09:43.555Z,19.70
2019-05-26T18:12:13.624Z,19.70
2019-05-26T18:14:42.391Z,19.60
2019-05-26T18:17:12.720Z,19.60
2019-05-26T18:19:45.184Z,19.60
2019-05-26T18:22:14.673Z,19.60
2019-05-26T18:24:55.043Z,19.50
2019-05-26T18:27:14.925Z,19.50
2019-05-26T18:29:46.558Z,19.40
2019-05-26T18:32:23.933Z,19.30
2019-05-26T18:34:55.963Z,19.30
2019-05-26T18:37:29.153Z,19.20
2019-05-26T18:40:01.500Z,19.20
2019-05-26T18:42:33.609Z,19.20
2019-05-26T18:45:06.327Z,19.10
2019-05-26T18:47:36.587Z,19.00
2019-05-26T18:50:13.357Z,18.90
2019-05-26T18:52:49.442Z,18.90
2019-05-26T18:55:28.407Z,18.70
2019-05-26T18:58:01.351Z,18.50
2019-05-26T19:00:34.424Z,18.40
2019-05-26T19:03:06.948Z,18.40
2019-05-26T19:05:38.500Z,18.40
2019-05-26T19:08:08.967Z,18.40
2019-05-26T19:10:40.203Z,18.40
2019-05-26T19:13:11.673Z,18.40
2019-05-26T19:15:42.303Z,18.30
2019-05-26T19:18:20.091Z,18.30
2019-05-26T19:20:46.951Z,18.20
2019-05-26T19:23:17.994Z,18.00
2019-05-26T19:25:50.441Z,18.00
2019-05-26T19:28:27.878Z,17.90
2019-05-26T19:31:01.210Z,17.80
2019-05-26T19:33:32.742Z,17.70
2019-05-26T19:36:17.465Z,17.50
2019-05-26T19:38:43.055Z,17.30
2019-05-26T19:41:12.887Z,17.20
2019-05-26T19:43:48.573Z,17.00
2019-05-26T19:46:19.900Z,16.90
2019-05-26T19:51:42.972Z,16.50
2019-05-26T19:54:16.099Z,16.30
2019-05-26T19:56:50.516Z,16.20
2019-05-26T19:59:24.270Z,16.20
2019-05-26T20:01:55.238Z,16.20
2019-05-26T20:04:25.680Z,16.20
2019-05-26T20:06:56.881Z,16.20
2019-05-26T20:09:25.571Z,16.20
2019-05-26T20:11:56.531Z,16.20
2019-05-26T20:14:29.346Z,16.20
2019-05-26T20:16:58.765Z,16.10
2019-05-26T20:19:28.374Z,16.10
2019-05-26T20:21:59.304Z,16.00
2019-05-26T20:24:29.035Z,15.90
2019-05-26T20:26:57.914Z,16.00
2019-05-26T20:29:28.054Z,16.10
2019-05-26T20:32:01.716Z,16.10
2019-05-26T20:34:32.439Z,16.10
2019-05-26T20:37:06.984Z,16.10
2019-05-26T20:39:39.011Z,16.00
2019-05-26T20:42:11.622Z,15.70
2019-05-26T20:44:54.593Z,15.50
2019-05-26T20:47:19.736Z,15.30
2019-05-26T20:49:51.427Z,15.30
2019-05-26T20:52:20.291Z,15.30
2019-05-26T20:55:00.044Z,15.20
2019-05-26T20:57:30.357Z,15.20
2019-05-26T21:00:00.874Z,15.20
2019-05-26T21:02:36.423Z,15.10
2019-05-26T21:05:09.933Z,15.00
2019-05-26T21:10:32.806Z,14.80
2019-05-26T21:13:04.428Z,14.80
2019-05-26T21:15:36.140Z,14.80
2019-05-26T21:18:12.008Z,14.80
2019-05-26T21:20:47.085Z,14.80
2019-05-26T21:23:16.735Z,15.00
2019-05-26T21:25:49.244Z,15.10
2019-05-26T21:28:27.200Z,15.20
2019-05-26T21:31:00.829Z,15.30
2019-05-26T21:33:34.321Z,15.50
2019-05-26T21:36:10.691Z,15.60
2019-05-26T21:38:39.493Z,15.70
2019-05-26T21:41:11.873Z,15.70
2019-05-26T21:43:49.091Z,15.80
2019-05-26T21:46:17.900Z,15.80
2019-05-26T21:48:51.459Z,15.80
2019-05-26T21:51:23.649Z,15.80
2019-05-26T21:53:54.011Z,15.90
2019-05-26T21:56:24.689Z,15.80
2019-05-26T21:58:59.036Z,15.80
2019-05-26T22:01:25.254Z,15.80
2019-05-26T22:04:00.899Z,15.80
2019-05-26T22:06:29.831Z,15.80
2019-05-26T22:09:01.537Z,15.80
2019-05-26T22:11:35.200Z,15.80
2019-05-26T22:14:17.749Z,15.80
2019-05-26T22:16:51.811Z,15.70
2019-05-26T22:19:39.337Z,15.60
2019-05-26T22:24:59.074Z,15.60
2019-05-26T22:27:31.448Z,15.60
2019-05-26T22:30:04.735Z,15.60
2019-05-26T22:32:33.535Z,15.60
2019-05-26T22:35:05.179Z,15.60
2019-05-26T22:37:34.171Z,15.50
2019-05-26T22:40:09.274Z,15.50
2019-05-26T22:42:43.908Z,15.50
2019-05-26T22:45:14.504Z,15.50
2019-05-26T22:47:43.121Z,15.50
2019-05-26T22:50:15.733Z,15.50
2019-05-26T22:52:50.371Z,15.60
2019-05-26T22:55:23.410Z,15.60
2019-05-26T22:57:55.332Z,15.60
2019-05-26T23:00:30.737Z,15.60
2019-05-26T23:03:03.513Z,15.60
2019-05-26T23:05:32.211Z,15.60
2019-05-26T23:08:01.987Z,15.70
2019-05-26T23:10:32.249Z,15.80
2019-05-26T23:13:03.032Z,15.80
2019-05-26T23:15:33.726Z,15.80
2019-05-26T23:18:07.125Z,15.80
2019-05-26T23:20:37.036Z,15.80
2019-05-26T23:23:08.434Z,15.80
2019-05-26T23:25:39.939Z,15.90
2019-05-26T23:28:09.030Z,15.90
2019-05-26T23:30:38.030Z,16.00
2019-05-26T23:33:10.591Z,16.00
2019-05-26T23:35:42.364Z,16.10
2019-05-26T23:38:14.041Z,16.00
2019-05-26T23:40:45.221Z,16.00
2019-05-26T23:43:16.270Z,16.00
2019-05-26T23:45:52.052Z,16.00
2019-05-26T23:48:24.363Z,16.00
2019-05-26T23:50:56.292Z,16.00
2019-05-26T23:53:29.107Z,16.00
2019-05-26T23:55:59.184Z,16.00
2019-05-26T23:58:29.767Z,16.00
